createdAt,value
2023-10-02T00:01:07.781Z,101200.31
2023-10-02T00:03:36.278Z,101198.44
2023-10-02T00:06:03.928Z,101201.00
2023-10-02T00:08:37.902Z,101183.31
2023-10-02T00:11:32.128Z,101202.63
2023-10-02T00:14:19.326Z,101197.22
2023-10-02T00:17:07.993Z,101193.78
2023-10-02T00:20:15.158Z,101192.84
2023-10-02T00:22:45.435Z,101184.88
2023-10-02T00:25:28.765Z,101188.50
2023-10-02T00:27:56.427Z,101178.81
2023-10-02T00:30:31.891Z,101188.50
2023-10-02T00:32:59.879Z,101184.94
2023-10-02T00:35:29.174Z,101149.63
2023-10-02T00:37:56.908Z,101164.62
2023-10-02T00:40:31.663Z,101178.66
2023-10-02T00:43:01.498Z,101179.50
2023-10-02T00:45:31.321Z,101183.91
2023-10-02T00:48:21.314Z,101187.38
2023-10-02T00:50:51.172Z,101187.38
2023-10-02T00:53:39.169Z,101186.53
2023-10-02T00:56:25.849Z,101191.84
2023-10-02T00:59:16.476Z,101191.84
2023-10-02T01:01:43.832Z,101190.22
2023-10-02T01:04:12.383Z,101180.59
2023-10-02T01:07:06.947Z,101185.13
2023-10-02T01:09:38.029Z,101184.28
2023-10-02T01:12:07.106Z,101183.44
2023-10-02T01:14:52.284Z,101168.53
2023-10-02T01:17:22.683Z,101179.16
2023-10-02T01:19:55.050Z,101183.63
2023-10-02T01:22:29.560Z,101190.72
2023-10-02T01:25:14.632Z,101195.09
2023-10-02T01:27:43.773Z,101189.84
2023-10-02T01:30:18.095Z,101178.34
2023-10-02T01:33:18.874Z,101197.81
2023-10-02T01:36:07.148Z,101196.97
2023-10-02T01:38:36.398Z,101198.75
2023-10-02T01:41:05.748Z,101165.28
2023-10-02T01:43:50.788Z,101204.06
2023-10-02T01:46:23.816Z,101200.53
2023-10-02T01:48:52.249Z,101205.91
2023-10-02T01:51:22.043Z,101205.91
2023-10-02T01:53:53.163Z,101204.16
2023-10-02T01:56:21.318Z,101197.13
2023-10-02T01:58:52.543Z,101204.22
2023-10-02T02:01:22.155Z,101204.22
2023-10-02T02:03:51.332Z,101168.94
2023-10-02T02:06:24.259Z,101178.69
2023-10-02T02:09:00.123Z,101160.13
2023-10-02T02:11:31.009Z,101162.75
2023-10-02T02:14:05.103Z,101199.84
2023-10-02T02:16:35.584Z,101206.91
2023-10-02T02:19:09.396Z,101206.94
2023-10-02T02:21:37.170Z,101185.75
2023-10-02T02:24:12.976Z,101206.94
2023-10-02T02:26:41.169Z,101207.81
2023-10-02T02:29:25.546Z,101206.94
2023-10-02T02:31:56.742Z,101209.59
2023-10-02T02:34:25.169Z,101191.97
2023-10-02T02:36:52.614Z,101213.13
2023-10-02T02:39:23.737Z,101212.28
2023-10-02T02:42:11.142Z,101214.06
2023-10-02T02:44:42.222Z,101224.66
2023-10-02T02:47:10.795Z,101201.75
2023-10-02T02:49:58.712Z,101222.94
2023-10-02T02:52:33.899Z,101230.00
2023-10-02T02:55:14.211Z,101230.88
2023-10-02T02:57:47.037Z,101182.34
2023-10-02T03:00:33.673Z,101204.41
2023-10-02T03:03:02.576Z,101223.81
2023-10-02T03:05:39.686Z,101230.00
2023-10-02T03:08:06.934Z,101233.56
2023-10-02T03:10:42.000Z,101236.19
2023-10-02T03:13:17.096Z,101233.53
2023-10-02T03:15:48.416Z,101232.69
2023-10-02T03:18:32.613Z,101233.53
2023-10-02T03:21:15.699Z,101232.66
2023-10-02T03:23:44.757Z,101230.91
2023-10-02T03:26:23.333Z,101214.13
2023-10-02T03:29:02.121Z,101214.16
2023-10-02T03:31:45.352Z,101249.47
2023-10-02T03:34:35.729Z,101242.41
2023-10-02T03:37:13.431Z,101237.97
2023-10-02T03:39:54.442Z,101244.16
2023-10-02T03:42:24.307Z,101238.84
2023-10-02T03:44:57.568Z,101238.00
2023-10-02T03:47:26.520Z,101235.34
2023-10-02T03:50:01.924Z,101242.41
2023-10-02T03:52:31.889Z,101228.28
2023-10-02T03:55:04.162Z,101247.69
2023-10-02T03:57:50.890Z,101250.34
2023-10-02T04:00:20.273Z,101249.47
2023-10-02T04:02:49.908Z,101234.44
2023-10-02T04:05:31.694Z,101233.56
2023-10-02T04:08:14.578Z,101251.19
2023-10-02T04:10:53.165Z,101245.91
2023-10-02T04:13:24.538Z,101219.41
2023-10-02T04:15:55.259Z,101245.91
2023-10-02T04:18:41.877Z,101251.16
2023-10-02T04:21:13.665Z,101247.63
2023-10-02T04:23:42.309Z,101252.03
2023-10-02T04:26:23.091Z,101241.41
2023-10-02T04:28:59.761Z,101260.87
2023-10-02T04:31:32.202Z,101254.69
2023-10-02T04:34:28.778Z,101261.72
2023-10-02T04:36:56.190Z,101237.91
2023-10-02T04:39:32.447Z,101267.03
2023-10-02T04:42:14.021Z,101266.16
2023-10-02T04:44:49.029Z,101273.25
2023-10-02T04:47:20.741Z,101252.09
2023-10-02T04:50:08.916Z,101267.97
2023-10-02T04:53:04.808Z,101248.59
2023-10-02T04:55:45.312Z,101260.94
2023-10-02T04:58:15.937Z,101281.25
2023-10-02T05:01:05.465Z,101294.50
2023-10-02T05:03:34.384Z,101300.66
2023-10-02T05:06:01.884Z,101283.00
2023-10-02T05:08:42.276Z,101296.25
2023-10-02T05:11:25.013Z,101294.50
2023-10-02T05:13:56.619Z,101290.06
2023-10-02T05:16:31.413Z,101260.06
2023-10-02T05:18:58.907Z,101307.72
2023-10-02T05:21:41.283Z,101315.66
2023-10-02T05:24:13.845Z,101313.91
2023-10-02T05:26:43.364Z,101320.09
2023-10-02T05:29:37.583Z,101283.88
2023-10-02T05:32:21.353Z,101329.78
2023-10-02T05:35:07.639Z,101311.25
2023-10-02T05:37:43.506Z,101331.56
2023-10-02T05:40:22.555Z,101345.72
2023-10-02T05:43:11.115Z,101346.59
2023-10-02T05:45:41.780Z,101343.91
2023-10-02T05:48:13.458Z,101343.91
2023-10-02T05:50:48.932Z,101350.09
2023-10-02T05:53:17.127Z,101347.47
2023-10-02T05:56:19.736Z,101351.91
2023-10-02T05:58:50.630Z,101358.97
2023-10-02T06:01:25.788Z,101358.06
2023-10-02T06:04:01.726Z,101354.50
2023-10-02T06:06:32.781Z,101365.97
2023-10-02T06:09:04.542Z,101369.47
2023-10-02T06:11:35.303Z,101361.44
2023-10-02T06:14:15.268Z,101358.72
2023-10-02T06:16:43.977Z,101334.84
2023-10-02T06:19:15.722Z,101353.25
2023-10-02T06:21:48.013Z,101354.06
2023-10-02T06:24:16.501Z,101356.59
2023-10-02T06:27:00.004Z,101350.28
2023-10-02T06:29:36.869Z,101357.28
2023-10-02T06:32:12.954Z,101356.25
2023-10-02T06:34:41.669Z,101362.31
2023-10-02T06:37:14.597Z,101348.91
2023-10-02T06:39:44.360Z,101355.66
2023-10-02T06:42:17.037Z,101363.44
2023-10-02T06:44:54.579Z,101372.94
2023-10-02T06:47:26.195Z,101368.22
2023-10-02T06:49:53.589Z,101373.25
2023-10-02T06:52:22.223Z,101376.47
2023-10-02T06:54:50.953Z,101363.81
2023-10-02T06:57:20.301Z,101374.59
2023-10-02T06:59:55.183Z,101385.25
2023-10-02T07:02:24.701Z,101388.78
2023-10-02T07:04:54.565Z,101378.94
2023-10-02T07:07:27.973Z,101379.03
2023-10-02T07:09:56.889Z,101372.44
2023-10-02T07:12:29.344Z,101375.87
2023-10-02T07:15:12.508Z,101377.62
2023-10-02T07:17:50.993Z,101369.28
2023-10-02T07:20:22.068Z,101383.91
2023-10-02T07:22:53.411Z,101382.22
2023-10-02T07:25:26.099Z,101389.03
2023-10-02T07:27:53.481Z,101382.31
2023-10-02T07:30:28.706Z,101388.38
2023-10-02T07:33:05.063Z,101383.38
2023-10-02T07:35:34.282Z,101384.16
2023-10-02T07:38:02.073Z,101388.28
2023-10-02T07:40:49.984Z,101383.50
2023-10-02T07:43:22.331Z,101388.63
2023-10-02T07:46:03.566Z,101391.12
2023-10-02T07:48:37.889Z,101391.12
2023-10-02T07:51:08.266Z,101369.63
2023-10-02T07:53:45.587Z,101393.50
2023-10-02T07:56:15.656Z,101398.50
2023-10-02T07:58:43.429Z,101403.47
2023-10-02T08:01:14.176Z,101410.69
2023-10-02T08:03:45.820Z,101401.94
2023-10-02T08:06:23.700Z,101402.25
2023-10-02T08:09:11.013Z,101401.25
2023-10-02T08:11:40.938Z,101392.41
2023-10-02T08:14:29.869Z,101395.34
2023-10-02T08:17:09.865Z,101391.91
2023-10-02T08:19:37.695Z,101381.16
2023-10-02T08:22:06.634Z,101397.94
2023-10-02T08:24:39.217Z,101387.53
2023-10-02T08:27:06.378Z,101402.56
2023-10-02T08:29:34.521Z,101393.41
2023-10-02T08:32:02.954Z,101394.91
2023-10-02T08:34:30.187Z,101378.34
2023-10-02T08:37:06.765Z,101386.44
2023-10-02T08:39:41.111Z,101400.53
2023-10-02T08:42:12.457Z,101381.72
2023-10-02T08:44:42.973Z,101381.47
2023-10-02T08:47:14.499Z,101389.94
2023-10-02T08:49:42.328Z,101387.59
2023-10-02T08:52:12.727Z,101386.44
2023-10-02T08:54:41.440Z,101386.50
2023-10-02T08:57:13.663Z,101387.41
2023-10-02T08:59:42.391Z,101381.78
2023-10-02T09:02:18.225Z,101386.63
2023-10-02T09:04:55.289Z,101383.06
2023-10-02T09:07:46.773Z,101378.09
2023-10-02T09:10:26.292Z,101377.41
2023-10-02T09:13:15.825Z,101378.09
2023-10-02T09:15:49.594Z,101366.34
2023-10-02T09:18:36.483Z,101370.62
2023-10-02T09:21:17.177Z,101359.78
2023-10-02T09:23:54.588Z,101368.06
2023-10-02T09:26:26.425Z,101372.37
2023-10-02T09:29:02.158Z,101367.69
2023-10-02T09:31:36.090Z,101356.84
2023-10-02T09:34:53.936Z,101359.75
2023-10-02T09:38:03.930Z,101360.09
2023-10-02T09:40:04.616Z,101347.09
2023-10-02T09:42:35.205Z,101340.09
2023-10-02T09:45:10.940Z,101330.75
2023-10-02T09:47:47.708Z,101339.34
2023-10-02T09:50:28.151Z,101352.50
2023-10-02T09:53:03.741Z,101346.44
2023-10-02T09:56:09.745Z,101351.63
2023-10-02T09:58:50.529Z,101346.59
2023-10-02T10:01:29.257Z,101344.03
2023-10-02T10:03:58.045Z,101342.06
2023-10-02T10:06:38.385Z,101336.59
2023-10-02T10:09:17.432Z,101337.63
2023-10-02T10:12:12.714Z,101334.81
2023-10-02T10:14:43.684Z,101337.78
2023-10-02T10:17:23.111Z,101337.94
2023-10-02T10:20:10.250Z,101335.44
2023-10-02T10:22:41.617Z,101333.41
2023-10-02T10:25:14.698Z,101337.78
2023-10-02T10:27:41.662Z,101316.47
2023-10-02T10:30:44.862Z,101332.59
2023-10-02T10:33:35.183Z,101332.66
2023-10-02T10:36:10.303Z,101330.59
2023-10-02T10:38:43.295Z,101313.22
2023-10-02T10:41:16.054Z,101333.53
2023-10-02T10:43:53.296Z,101319.78
2023-10-02T10:46:22.182Z,101320.19
2023-10-02T10:49:25.334Z,101320.56
2023-10-02T10:51:54.259Z,101315.09
2023-10-02T10:54:45.565Z,101311.47
2023-10-02T10:57:24.122Z,101310.50
2023-10-02T11:00:28.274Z,101285.88
2023-10-02T11:03:15.549Z,101305.13
2023-10-02T11:05:43.483Z,101266.69
2023-10-02T11:08:25.856Z,101290.41
2023-10-02T11:11:13.275Z,101291.50
2023-10-02T11:13:52.598Z,101278.56
2023-10-02T11:16:23.920Z,101274.25
2023-10-02T11:19:27.780Z,101280.09
2023-10-02T11:22:16.583Z,101275.19
2023-10-02T11:24:49.877Z,101271.59
2023-10-02T11:27:17.876Z,101271.41
2023-10-02T11:30:05.281Z,101271.34
2023-10-02T11:33:00.095Z,101266.78
2023-10-02T11:35:30.704Z,101257.19
2023-10-02T11:37:59.170Z,101260.34
2023-10-02T11:40:26.703Z,101250.56
2023-10-02T11:42:54.157Z,101254.94
2023-10-02T11:45:21.351Z,101257.00
2023-10-02T11:47:50.216Z,101245.31
2023-10-02T11:50:17.928Z,101245.28
2023-10-02T11:52:45.541Z,101246.28
2023-10-02T11:55:12.894Z,101219.84
2023-10-02T11:57:41.096Z,101238.00
2023-10-02T12:00:13.715Z,101244.91
2023-10-02T12:02:41.098Z,101241.34
2023-10-02T12:05:09.305Z,101216.28
2023-10-02T12:07:36.621Z,101220.91
2023-10-02T12:10:03.750Z,101225.56
2023-10-02T12:12:31.882Z,101233.44
2023-10-02T12:14:59.166Z,101218.69
2023-10-02T12:17:27.101Z,101221.62
2023-10-02T12:19:54.265Z,101223.81
2023-10-02T12:22:21.157Z,101209.06
2023-10-02T12:24:48.273Z,101199.44
2023-10-02T12:27:17.985Z,101207.31
2023-10-02T12:29:45.099Z,101207.31
2023-10-02T12:32:12.677Z,101198.25
2023-10-02T12:34:40.546Z,101195.84
2023-10-02T12:37:07.653Z,101207.03
2023-10-02T12:39:34.793Z,101192.47
2023-10-02T12:42:02.336Z,101194.47
2023-10-02T12:44:32.348Z,101181.69
2023-10-02T12:46:59.894Z,101183.22
2023-10-02T12:49:27.152Z,101173.69
2023-10-02T12:51:56.033Z,101176.84
2023-10-02T12:54:24.014Z,101181.12
2023-10-02T12:56:52.236Z,101175.44
2023-10-02T12:59:20.022Z,101159.75
2023-10-02T13:01:47.285Z,101166.09
2023-10-02T13:04:14.377Z,101162.59
2023-10-02T13:06:41.385Z,101174.81
2023-10-02T13:09:16.075Z,101169.72
2023-10-02T13:11:46.117Z,101164.47
2023-10-02T13:14:17.016Z,101162.44
2023-10-02T13:16:47.337Z,101153.44
2023-10-02T13:19:14.432Z,101122.09
2023-10-02T13:21:42.571Z,101142.34
2023-10-02T13:24:18.711Z,101140.81
2023-10-02T13:26:46.014Z,101142.81
2023-10-02T13:29:13.449Z,101127.97
2023-10-02T13:31:41.089Z,101132.06
2023-10-02T13:34:08.236Z,101136.38
2023-10-02T13:36:35.653Z,101115.88
2023-10-02T13:39:06.795Z,101133.28
2023-10-02T13:41:36.441Z,101113.81
2023-10-02T13:44:05.552Z,101130.31
2023-10-02T13:46:39.810Z,101127.03
2023-10-02T13:49:07.576Z,101126.09
2023-10-02T13:51:35.011Z,101111.63
2023-10-02T13:54:02.615Z,101124.22
2023-10-02T13:56:34.562Z,101116.75
2023-10-02T13:59:03.329Z,101073.00
2023-10-02T14:01:34.609Z,101112.41
2023-10-02T14:04:02.889Z,101107.41
2023-10-02T14:06:30.605Z,101105.88
2023-10-02T14:08:58.904Z,101104.50
2023-10-02T14:11:28.034Z,101102.22
2023-10-02T14:13:57.818Z,101107.87
2023-10-02T14:16:26.630Z,101095.97
2023-10-02T14:18:55.211Z,101085.88
2023-10-02T14:21:23.564Z,101087.91
2023-10-02T14:23:54.589Z,101089.66
2023-10-02T14:26:24.081Z,101083.47
2023-10-02T14:28:54.935Z,101085.22
2023-10-02T14:31:33.633Z,101086.34
2023-10-02T14:34:01.643Z,101081.31
2023-10-02T14:36:30.772Z,101080.16
2023-10-02T14:38:59.801Z,101082.47
2023-10-02T14:41:28.700Z,101065.00
2023-10-02T14:43:56.859Z,101070.72
2023-10-02T14:46:24.659Z,101070.97
2023-10-02T14:48:51.685Z,101081.59
2023-10-02T14:51:19.876Z,101059.75
2023-10-02T14:53:47.091Z,101076.28
2023-10-02T14:56:14.402Z,101081.94
2023-10-02T14:58:51.919Z,101082.69
2023-10-02T15:01:20.577Z,101076.34
2023-10-02T15:03:51.751Z,101054.94
2023-10-02T15:06:18.968Z,101079.97
2023-10-02T15:08:46.229Z,101079.19
2023-10-02T15:11:15.786Z,101089.84
2023-10-02T15:13:44.620Z,101075.38
2023-10-02T15:16:19.023Z,101058.47
2023-10-02T15:18:49.393Z,101075.91
2023-10-02T15:21:18.308Z,101059.69
2023-10-02T15:23:46.432Z,101076.03
2023-10-02T15:26:13.452Z,101071.91
2023-10-02T15:28:40.686Z,101073.09
2023-10-02T15:31:08.924Z,101059.50
2023-10-02T15:33:37.209Z,101069.28
2023-10-02T15:36:04.610Z,101074.78
2023-10-02T15:38:32.425Z,101063.09
2023-10-02T15:41:02.988Z,101064.84
2023-10-02T15:43:30.587Z,101068.63
2023-10-02T15:45:59.931Z,101052.09
2023-10-02T15:48:27.881Z,101069.78
2023-10-02T15:50:55.342Z,101067.06
2023-10-02T15:53:26.118Z,101077.59
2023-10-02T15:55:53.684Z,101070.63
2023-10-02T15:58:20.930Z,101077.56
2023-10-02T16:00:50.749Z,101073.19
2023-10-02T16:03:18.345Z,101073.47
2023-10-02T16:05:47.963Z,101080.69
2023-10-02T16:08:15.401Z,101075.78
2023-10-02T16:10:42.381Z,101083.22
2023-10-02T16:13:09.261Z,101077.59
2023-10-02T16:15:36.796Z,101073.69
2023-10-02T16:18:06.450Z,101083.56
2023-10-02T16:20:33.882Z,101088.34
2023-10-02T16:23:03.733Z,101085.66
2023-10-02T16:25:32.308Z,101090.16
2023-10-02T16:27:59.692Z,101081.88
2023-10-02T16:30:27.849Z,101067.91
2023-10-02T16:32:56.015Z,101077.00
2023-10-02T16:35:30.205Z,101097.81
2023-10-02T16:38:04.625Z,101084.87
2023-10-02T16:40:34.478Z,101092.50
2023-10-02T16:43:05.519Z,101075.31
2023-10-02T16:45:34.187Z,101083.19
2023-10-02T16:48:04.162Z,101095.88
2023-10-02T16:50:31.838Z,101078.88
2023-10-02T16:52:59.876Z,101065.59
2023-10-02T16:55:31.827Z,101084.53
2023-10-02T16:57:59.084Z,101066.56
2023-10-02T17:00:28.376Z,101098.69
2023-10-02T17:02:59.696Z,101093.88
2023-10-02T17:05:27.245Z,101098.66
2023-10-02T17:07:55.682Z,101106.28
2023-10-02T17:10:23.935Z,101092.91
2023-10-02T17:12:55.923Z,101098.09
2023-10-02T17:15:23.330Z,100988.06
2023-10-02T17:17:51.162Z,101100.59
2023-10-02T17:20:23.482Z,101086.84
2023-10-02T17:22:51.464Z,101107.47
2023-10-02T17:25:28.008Z,101106.03
2023-10-02T17:28:02.917Z,101102.56
2023-10-02T17:30:34.126Z,101094.47
2023-10-02T17:33:05.470Z,101110.22
2023-10-02T17:35:35.859Z,101115.22
2023-10-02T17:38:08.015Z,101117.25
2023-10-02T17:40:37.512Z,101085.34
2023-10-02T17:43:06.905Z,101119.75
2023-10-02T17:45:39.648Z,101118.47
2023-10-02T17:48:09.269Z,101119.56
2023-10-02T17:50:38.806Z,101106.12
2023-10-02T17:53:08.021Z,101127.47
2023-10-02T17:55:39.333Z,101101.50
2023-10-02T17:58:09.143Z,101128.97
2023-10-02T18:00:38.963Z,101129.38
2023-10-02T18:03:10.322Z,101133.19
2023-10-02T18:05:41.118Z,101123.38
2023-10-02T18:08:11.143Z,101104.47
2023-10-02T18:10:47.721Z,101131.28
2023-10-02T18:13:17.315Z,101129.50
2023-10-02T18:15:49.270Z,101136.75
2023-10-02T18:18:20.445Z,101076.56
2023-10-02T18:20:53.142Z,101135.63
2023-10-02T18:23:24.322Z,101143.69
2023-10-02T18:25:56.494Z,101121.13
2023-10-02T18:28:26.170Z,101144.00
2023-10-02T18:30:58.832Z,101141.44
2023-10-02T18:33:33.581Z,101156.78
2023-10-02T18:36:06.469Z,101155.25
2023-10-02T18:38:37.704Z,101132.59
2023-10-02T18:41:13.879Z,101152.16
2023-10-02T18:43:44.048Z,101123.53
2023-10-02T18:46:14.094Z,101157.09
2023-10-02T18:48:46.504Z,101150.12
2023-10-02T18:51:22.926Z,101127.00
2023-10-02T18:54:06.430Z,101154.53
2023-10-02T18:56:37.409Z,101135.56
2023-10-02T18:59:07.430Z,101153.06
2023-10-02T19:01:36.962Z,101120.94
2023-10-02T19:04:07.839Z,101132.37
2023-10-02T19:06:36.542Z,101145.50
2023-10-02T19:09:09.764Z,101149.28
2023-10-02T19:11:39.756Z,101120.50
2023-10-02T19:14:10.826Z,101152.44
2023-10-02T19:16:42.101Z,101143.97
2023-10-02T19:19:10.943Z,101146.00
2023-10-02T19:21:39.259Z,101157.50
2023-10-02T19:24:09.859Z,101157.09
2023-10-02T19:26:38.950Z,101158.00
2023-10-02T19:29:08.534Z,101163.53
2023-10-02T19:31:37.982Z,101145.28
2023-10-02T19:34:07.509Z,101154.38
2023-10-02T19:36:36.702Z,101116.88
2023-10-02T19:39:07.575Z,101155.78
2023-10-02T19:41:36.098Z,101156.59
2023-10-02T19:44:07.794Z,101159.47
2023-10-02T19:46:38.028Z,101158.47
2023-10-02T19:49:09.181Z,101151.78
2023-10-02T19:51:37.266Z,101149.34
2023-10-02T19:54:06.753Z,101151.78
2023-10-02T19:56:35.592Z,101115.00
2023-10-02T19:59:05.130Z,101152.03
2023-10-02T20:01:32.881Z,101150.50
2023-10-02T20:04:02.057Z,101151.44
2023-10-02T20:06:30.464Z,101148.97
2023-10-02T20:08:59.231Z,101157.00
2023-10-02T20:11:27.620Z,101151.09
2023-10-02T20:13:57.228Z,101152.91
2023-10-02T20:16:25.039Z,101159.37
2023-10-02T20:18:53.184Z,101125.84
2023-10-02T20:21:21.211Z,101164.16
2023-10-02T20:23:52.864Z,101156.28
2023-10-02T20:26:21.556Z,101156.78
2023-10-02T20:28:49.363Z,101163.06
2023-10-02T20:31:16.589Z,101162.16
2023-10-02T20:33:44.022Z,101165.09
2023-10-02T20:36:13.137Z,101167.16
2023-10-02T20:38:41.788Z,101144.09
2023-10-02T20:41:09.856Z,101139.75
2023-10-02T20:43:36.915Z,101163.72
2023-10-02T20:46:04.082Z,101171.00
2023-10-02T20:48:31.534Z,101168.31
2023-10-02T20:51:01.906Z,101167.41
2023-10-02T20:53:29.396Z,101166.59
2023-10-02T20:56:00.815Z,101148.28
2023-10-02T20:58:28.582Z,101165.19
2023-10-02T21:00:55.852Z,101178.59
2023-10-02T21:03:23.116Z,101175.00
2023-10-02T21:05:51.185Z,101158.53
2023-10-02T21:08:18.500Z,101186.78
2023-10-02T21:10:45.638Z,101185.06
2023-10-02T21:13:12.810Z,101191.41
2023-10-02T21:15:40.009Z,101190.88
2023-10-02T21:18:07.699Z,101186.72
2023-10-02T21:20:34.889Z,101183.94
2023-10-02T21:23:02.043Z,101180.50
2023-10-02T21:25:29.196Z,101185.75
2023-10-02T21:27:56.600Z,101188.28
2023-10-02T21:30:23.853Z,101193.75
2023-10-02T21:32:52.324Z,101185.06
2023-10-02T21:35:19.589Z,101186.81
2023-10-02T21:37:47.489Z,101182.31
2023-10-02T21:40:15.093Z,101183.19
2023-10-02T21:42:43.032Z,101181.44
2023-10-02T21:45:13.612Z,101172.66
2023-10-02T21:47:40.904Z,101180.66
2023-10-02T21:50:08.197Z,101181.69
2023-10-02T21:52:40.562Z,101185.31
2023-10-02T21:55:10.798Z,101172.91
2023-10-02T21:57:38.023Z,101186.19
2023-10-02T22:00:09.141Z,101162.50
2023-10-02T22:02:36.348Z,101181.19
2023-10-02T22:05:04.757Z,101177.75
2023-10-02T22:07:32.152Z,101154.81
2023-10-02T22:09:59.254Z,101173.47
2023-10-02T22:12:26.682Z,101168.94
2023-10-02T22:14:53.856Z,101173.44
2023-10-02T22:17:22.078Z,101172.56
2023-10-02T22:19:51.391Z,101166.41
2023-10-02T22:22:18.503Z,101171.88
2023-10-02T22:24:45.669Z,101175.47
2023-10-02T22:27:15.210Z,101169.34
2023-10-02T22:29:42.467Z,101164.12
2023-10-02T22:32:10.118Z,101168.50
2023-10-02T22:34:42.091Z,101174.75
2023-10-02T22:37:14.630Z,101166.81
2023-10-02T22:39:42.847Z,101173.22
2023-10-02T22:42:12.557Z,101168.78
2023-10-02T22:44:40.086Z,101171.41
2023-10-02T22:47:07.593Z,101166.06
2023-10-02T22:49:36.727Z,101152.06
2023-10-02T22:52:04.733Z,101165.28
2023-10-02T22:54:31.885Z,101164.44
2023-10-02T22:57:04.978Z,101169.78
2023-10-02T22:59:32.316Z,101169.03
2023-10-02T23:02:01.111Z,101176.13
2023-10-02T23:04:28.784Z,101173.47
2023-10-02T23:06:56.092Z,101179.78
2023-10-02T23:09:25.698Z,101171.81
2023-10-02T23:11:53.532Z,101179.94
2023-10-02T23:14:24.140Z,101172.91
2023-10-02T23:16:51.507Z,101168.66
2023-10-02T23:19:21.188Z,101170.31
2023-10-02T23:21:48.371Z,101179.97
2023-10-02T23:24:15.264Z,101174.66
2023-10-02T23:26:42.405Z,101183.59
2023-10-02T23:29:09.357Z,101181.84
2023-10-02T23:31:36.747Z,101180.16
2023-10-02T23:34:07.346Z,101157.31
2023-10-02T23:36:35.253Z,101188.28
2023-10-02T23:39:03.448Z,101184.81
2023-10-02T23:41:33.263Z,101184.75
2023-10-02T23:44:00.762Z,101178.53
2023-10-02T23:46:27.629Z,101184.88
2023-10-02T23:48:56.676Z,101165.50
2023-10-02T23:51:29.223Z,101184.00
2023-10-02T23:53:58.553Z,101183.34
2023-10-02T23:56:26.670Z,101177.09
2023-10-02T23:58:53.869Z,101171.81
